createdAt,value
2023-04-15T00:01:24.941Z,97127.53
2023-04-15T00:06:28.392Z,97081.50
2023-04-15T00:11:33.300Z,97167.63
2023-04-15T00:16:37.252Z,97140.72
2023-04-15T00:21:40.674Z,97036.25
2023-04-15T00:26:45.344Z,97137.81
2023-04-15T00:31:48.754Z,97130.38
2023-04-15T00:36:52.581Z,97137.34
2023-04-15T00:41:58.771Z,97138.16
2023-04-15T00:47:02.838Z,97099.44
2023-04-15T00:52:06.478Z,97000.31
2023-04-15T00:57:11.335Z,97063.19
2023-04-15T01:02:14.796Z,97146.84
2023-04-15T01:07:18.639Z,97146.41
2023-04-15T01:12:24.087Z,97148.84
2023-04-15T01:17:28.240Z,97113.59
2023-04-15T01:22:33.461Z,97146.47
2023-04-15T01:27:40.879Z,96826.94
2023-04-15T01:32:44.413Z,97048.88
2023-04-15T01:37:48.746Z,97132.41
2023-04-15T01:42:55.228Z,97081.91
2023-04-15T01:47:58.633Z,97127.38
2023-04-15T01:53:02.025Z,97134.72
2023-04-15T01:58:06.894Z,97140.44
2023-04-15T02:03:10.938Z,97143.25
2023-04-15T02:08:14.556Z,97115.22
2023-04-15T02:13:19.347Z,97087.88
2023-04-15T02:18:22.854Z,97145.03
2023-04-15T02:23:26.577Z,97126.75
2023-04-15T02:28:31.410Z,97119.41
2023-04-15T02:33:34.887Z,97133.75
2023-04-15T02:38:40.747Z,97114.06
2023-04-15T02:43:45.866Z,97126.38
2023-04-15T02:48:51.019Z,97081.53
2023-04-15T02:53:54.442Z,97109.91
2023-04-15T02:58:59.410Z,97098.91
2023-04-15T03:04:03.207Z,97060.41
2023-04-15T03:09:06.683Z,97119.44
2023-04-15T03:14:13.974Z,97118.31
2023-04-15T03:19:22.692Z,97101.44
2023-04-15T03:24:26.297Z,97108.44
2023-04-15T03:29:31.230Z,97061.75
2023-04-15T03:34:36.078Z,97018.03
2023-04-15T03:39:39.691Z,97121.75
2023-04-15T03:44:44.456Z,97045.06
2023-04-15T03:49:47.859Z,97122.59
2023-04-15T03:54:51.496Z,97108.44
2023-04-15T03:59:56.308Z,97111.28
2023-04-15T04:04:59.841Z,97123.69
2023-04-15T04:10:03.887Z,97102.19
2023-04-15T04:15:09.665Z,97129.19
2023-04-15T04:20:13.442Z,97125.00
2023-04-15T04:25:17.101Z,97091.47
2023-04-15T04:30:22.167Z,97133.97
2023-04-15T04:35:25.619Z,97104.88
2023-04-15T04:40:29.057Z,97108.34
2023-04-15T04:45:33.803Z,97085.09
2023-04-15T04:50:37.712Z,97151.78
2023-04-15T04:55:41.361Z,97103.81
2023-04-15T05:00:46.241Z,97146.59
2023-04-15T05:05:50.249Z,97145.31
2023-04-15T05:10:53.675Z,97148.78
2023-04-15T05:15:58.449Z,97049.91
2023-04-15T05:21:01.999Z,97077.13
2023-04-15T05:26:05.605Z,97093.63
2023-04-15T05:31:10.762Z,97150.16
2023-04-15T05:36:14.306Z,97143.19
2023-04-15T05:41:19.724Z,97123.78
2023-04-15T05:46:24.971Z,97095.91
2023-04-15T05:51:28.523Z,97110.75
2023-04-15T05:56:31.940Z,97152.50
2023-04-15T06:01:36.945Z,97110.00
2023-04-15T06:06:40.589Z,97160.88
2023-04-15T06:11:44.230Z,97121.38
2023-04-15T06:16:49.071Z,97132.63
2023-04-15T06:21:52.628Z,97121.25
2023-04-15T06:26:56.387Z,97179.41
2023-04-15T06:32:01.567Z,97137.72
2023-04-15T06:37:06.332Z,97118.69
2023-04-15T06:42:10.761Z,97138.19
2023-04-15T06:47:15.837Z,97165.34
2023-04-15T06:52:19.451Z,96937.13
2023-04-15T06:57:22.966Z,97190.84
2023-04-15T07:02:27.939Z,97091.28
2023-04-15T07:07:31.699Z,97157.66
2023-04-15T07:12:35.871Z,96930.38
2023-04-15T07:17:41.548Z,97192.63
2023-04-15T07:22:44.983Z,97164.03
2023-04-15T07:27:48.571Z,97166.97
2023-04-15T07:32:53.550Z,97152.22
2023-04-15T07:37:57.746Z,97173.19
2023-04-15T07:43:01.269Z,97171.97
2023-04-15T07:48:06.946Z,97112.34
2023-04-15T07:53:10.339Z,97170.28
2023-04-15T07:58:13.757Z,97031.38
2023-04-15T08:03:18.794Z,97171.44
2023-04-15T08:08:22.343Z,97138.28
2023-04-15T08:13:28.115Z,97168.59
2023-04-15T08:18:32.991Z,97165.44
2023-04-15T08:23:36.554Z,97165.72
2023-04-15T08:28:41.890Z,97141.81
2023-04-15T08:33:47.409Z,97175.81
2023-04-15T08:38:55.085Z,97134.13
2023-04-15T08:44:00.048Z,97124.50
2023-04-15T08:49:07.144Z,97110.50
2023-04-15T09:00:48.800Z,97156.75
2023-04-15T09:05:54.712Z,97126.63
2023-04-15T09:10:58.161Z,97164.91
2023-04-15T09:16:04.050Z,97080.78
2023-04-15T09:21:11.352Z,97186.16
2023-04-15T09:26:17.671Z,97178.47
2023-04-15T09:31:31.324Z,97018.81
2023-04-15T09:36:54.031Z,97184.59
2023-04-15T09:42:08.090Z,97191.63
2023-04-15T09:47:31.662Z,97139.31
2023-04-15T09:52:49.143Z,97188.00
2023-04-15T09:57:52.725Z,97137.06
2023-04-15T10:02:56.633Z,97198.00
2023-04-15T10:08:02.597Z,97072.44
2023-04-15T10:13:14.805Z,97191.22
2023-04-15T10:18:21.022Z,97070.84
2023-04-15T10:23:27.472Z,97175.31
2023-04-15T10:28:30.945Z,97156.09
2023-04-15T10:33:35.099Z,96893.25
2023-04-15T10:38:41.778Z,97203.53
2023-04-15T10:43:53.457Z,97207.53
2023-04-15T10:48:57.648Z,97217.81
2023-04-15T10:54:02.591Z,97209.31
2023-04-15T10:59:07.467Z,97215.22
2023-04-15T11:04:11.296Z,97244.84
2023-04-15T11:09:33.127Z,97081.31
2023-04-15T11:14:43.259Z,97187.38
2023-04-15T11:19:47.024Z,97214.28
2023-04-15T11:24:52.045Z,97222.91
2023-04-15T11:29:55.541Z,97228.81
2023-04-15T11:34:59.342Z,97186.25
2023-04-15T11:40:05.846Z,97190.47
2023-04-15T11:45:10.276Z,97173.34
2023-04-15T11:50:21.181Z,97199.25
2023-04-15T11:55:26.499Z,97233.16
2023-04-15T12:00:29.926Z,97189.47
2023-04-15T12:05:48.502Z,97252.53
2023-04-15T12:11:00.781Z,97279.38
2023-04-15T12:16:04.849Z,97229.34
2023-04-15T12:21:11.447Z,97313.16
2023-04-15T12:26:16.483Z,97271.16
2023-04-15T12:31:20.026Z,97328.00
2023-04-15T12:36:30.320Z,97300.44
2023-04-15T12:41:34.999Z,97329.41
2023-04-15T12:46:38.962Z,97207.03
2023-04-15T12:51:43.058Z,97323.91
2023-04-15T12:56:49.985Z,97334.56
2023-04-15T13:01:54.722Z,97255.09
2023-04-15T13:06:58.494Z,97352.75
2023-04-15T13:12:04.721Z,97352.03
2023-04-15T13:17:10.262Z,97358.94
2023-04-15T13:22:14.995Z,97365.97
2023-04-15T13:27:19.799Z,97380.72
2023-04-15T13:32:23.291Z,97371.25
2023-04-15T13:37:28.027Z,97325.53
2023-04-15T13:42:34.138Z,97378.50
2023-04-15T13:47:38.065Z,97306.53
2023-04-15T13:52:41.522Z,97318.56
2023-04-15T13:57:46.680Z,97394.78
2023-04-15T14:02:50.744Z,97395.59
2023-04-15T14:07:54.420Z,97410.75
2023-04-15T14:12:59.276Z,97410.75
2023-04-15T14:18:03.482Z,97361.22
2023-04-15T14:23:06.997Z,97408.00
2023-04-15T14:28:11.800Z,97431.94
2023-04-15T14:33:16.326Z,97368.19
2023-04-15T14:38:20.035Z,97343.47
2023-04-15T14:43:24.788Z,97390.63
2023-04-15T14:48:28.479Z,97459.44
2023-04-15T14:53:31.832Z,97443.16
2023-04-15T14:58:36.636Z,97483.59
2023-04-15T15:03:40.657Z,97436.09
2023-04-15T15:08:44.426Z,97459.44
2023-04-15T15:13:49.281Z,97442.28
2023-04-15T15:18:52.755Z,97458.56
2023-04-15T15:23:56.126Z,97437.91
2023-04-15T15:29:01.207Z,97505.72
2023-04-15T15:34:05.485Z,97465.56
2023-04-15T15:39:11.696Z,97535.41
2023-04-15T15:44:16.454Z,97503.56
2023-04-15T15:49:20.589Z,97531.81
2023-04-15T15:54:24.115Z,97274.75
2023-04-15T15:59:28.987Z,97555.34
2023-04-15T16:04:32.718Z,97561.88
2023-04-15T16:09:36.352Z,97571.28
2023-04-15T16:14:43.123Z,97337.03
2023-04-15T16:19:59.861Z,97590.94
2023-04-15T16:25:04.686Z,97569.63
2023-04-15T16:30:11.338Z,97611.06
2023-04-15T16:35:16.245Z,97580.88
2023-04-15T16:40:19.864Z,97572.31
2023-04-15T16:45:24.702Z,97645.53
2023-04-15T16:50:28.153Z,97636.25
2023-04-15T16:55:31.591Z,97598.84
2023-04-15T17:00:37.072Z,97655.13
2023-04-15T17:05:42.204Z,97672.78
2023-04-15T17:10:45.637Z,97645.19
2023-04-15T17:15:50.351Z,97641.75
2023-04-15T17:20:53.846Z,97688.78
2023-04-15T17:25:57.248Z,97689.41
2023-04-15T17:31:02.200Z,97705.94
2023-04-15T17:36:05.944Z,97702.44
2023-04-15T17:41:09.332Z,97725.34
2023-04-15T17:46:14.600Z,97694.81
2023-04-15T17:51:18.055Z,97659.72
2023-04-15T17:56:21.556Z,97733.44
2023-04-15T18:01:26.510Z,97750.97
2023-04-15T18:06:30.083Z,97752.19
2023-04-15T18:11:34.185Z,97724.31
2023-04-15T18:16:40.160Z,97760.47
2023-04-15T18:21:43.557Z,97764.94
2023-04-15T18:26:48.986Z,97760.78
2023-04-15T18:31:54.245Z,97788.44
2023-04-15T18:36:58.166Z,97716.03
2023-04-15T18:42:01.931Z,97800.94
2023-04-15T18:47:06.744Z,97794.97
2023-04-15T18:52:10.742Z,97810.63
2023-04-15T18:57:14.128Z,97816.75
2023-04-15T19:02:25.310Z,97834.88
2023-04-15T19:07:28.813Z,97834.88
2023-04-15T19:12:32.213Z,97830.28
2023-04-15T19:17:37.027Z,97840.63
2023-04-15T19:22:40.607Z,97681.97
2023-04-15T19:27:43.992Z,97852.28
2023-04-15T19:32:48.841Z,97795.59
2023-04-15T19:37:52.271Z,97846.50
2023-04-15T19:42:55.871Z,97703.53
2023-04-15T19:48:00.776Z,97828.78
2023-04-15T19:53:04.339Z,97829.94
2023-04-15T19:58:07.779Z,97820.19
2023-04-15T20:03:13.186Z,97867.16
2023-04-15T20:08:16.895Z,97839.81
2023-04-15T20:13:20.538Z,97864.00
2023-04-15T20:18:25.368Z,97576.50
2023-04-15T20:23:28.745Z,97821.91
2023-04-15T20:28:32.282Z,97791.63
2023-04-15T20:33:37.165Z,97835.09
2023-04-15T20:38:40.640Z,97864.09
2023-04-15T20:43:44.041Z,97852.88
2023-04-15T20:48:49.296Z,97879.44
2023-04-15T20:53:52.775Z,97823.56
2023-04-15T20:58:56.481Z,97900.84
2023-04-15T21:04:01.420Z,97888.66
2023-04-15T21:09:05.001Z,97915.25
2023-04-15T21:14:09.229Z,97842.84
2023-04-15T21:19:14.354Z,97881.84
2023-04-15T21:24:17.858Z,97827.31
2023-04-15T21:29:21.395Z,97806.63
2023-04-15T21:34:26.662Z,97888.81
2023-04-15T21:39:30.102Z,97923.91
2023-04-15T21:44:33.565Z,97918.06
2023-04-15T21:49:39.617Z,97972.38
2023-04-15T21:54:43.187Z,97936.22
2023-04-15T21:59:46.975Z,97938.44
2023-04-15T22:04:52.027Z,97832.16
2023-04-15T22:10:01.662Z,97781.72
2023-04-15T22:15:06.130Z,97928.56
2023-04-15T22:20:13.351Z,97956.03
2023-04-15T22:25:16.905Z,97696.78
2023-04-15T22:30:20.736Z,97947.00
2023-04-15T22:35:25.769Z,97946.81
2023-04-15T22:40:31.044Z,97828.00
2023-04-15T22:45:35.935Z,97991.09
2023-04-15T22:50:41.256Z,97983.72
2023-04-15T22:55:54.094Z,97992.25
2023-04-15T23:00:59.164Z,97943.19
2023-04-15T23:06:04.117Z,97843.47
2023-04-15T23:11:08.685Z,97996.16
2023-04-15T23:16:12.304Z,98001.94
2023-04-15T23:21:17.165Z,98001.56
2023-04-15T23:26:20.635Z,97958.84
2023-04-15T23:31:24.157Z,97636.50
2023-04-15T23:36:29.144Z,97975.94
2023-04-15T23:41:33.854Z,98009.53
2023-04-15T23:46:37.408Z,97988.09
2023-04-15T23:51:42.189Z,98025.19
2023-04-15T23:56:46.160Z,97921.16
